Flight Track Log - Related Links

Times and Time Zones

All times are in EDT time to prevent confusion due to time zone crossing. See the TAM8090 flight status page for this flight to view local times or setup timezone preferences in your user account.

Time Position Orientation Groundspeed Altitude Reporting Facility
EDT Latitude Longitude Course Direction KTS MPH feet Rate Location/Type
Mon 11:13:37 PM -23.4240 -46.4450 73° East 195 224 2,600  Level FlightAware ADS-B
Mon 11:14:07 PM -23.4200 -46.4160 81° East 193 222 3,900 2,250 Climbing FlightAware ADS-B
Mon 11:14:17 PM -23.4230 -46.4110 123° Southeast 193 222 4,100 1,680 Climbing FlightAware ADS-B
Mon 11:14:32 PM -23.4360 -46.4020 148° Southeast 196 226 4,600 1,800 Climbing FlightAware ADS-B
Mon 11:14:47 PM -23.4510 -46.4040 187° South 217 250 5,000 1,600 Climbing FlightAware ADS-B
Mon 11:15:02 PM -23.4610 -46.4160 228° Southwest 225 259 5,400 1,067 Climbing FlightAware ADS-B
Mon 11:15:32 PM -23.4790 -46.4470 238° Southwest 261 300 5,800 982 Climbing FlightAware ADS-B
Mon 11:15:57 PM -23.4980 -46.4750 233° Southwest 284 327 6,300 1,855 Climbing FlightAware ADS-B
Mon 11:16:27 PM -23.5240 -46.5120 233° Southwest 294 338 7,500 2,400 Climbing FlightAware ADS-B
Mon 11:16:57 PM -23.5440 -46.5480 239° Southwest 297 342 8,700 2,400 Climbing FlightAware ADS-B
Mon 11:17:07 PM -23.5470 -46.5640 258° West 302 348 9,100 1,029 Climbing FlightAware ADS-B
Mon 11:17:32 PM -23.5470 -46.5710 270° West 301 346 9,300 1,457 Climbing FlightAware ADS-B
Mon 11:18:17 PM -23.5430 -46.6730 272° West 343 395 10,800 1,600 Climbing FlightAware ADS-B
Mon 11:19:02 PM -23.5380 -46.7580 274° West 386 444 11,700 1,482 Climbing FlightAware ADS-B
Mon 11:19:42 PM -23.5340 -46.8400 273° West 407 468 12,900 1,950 Climbing FlightAware ADS-B
Mon 11:20:22 PM -23.5310 -46.9220 272° West 417 480 14,300 2,188 Climbing FlightAware ADS-B
Mon 11:21:07 PM -23.5260 -47.0180 273° West 423 487 16,000 2,259 Climbing FlightAware ADS-B
Mon 11:21:47 PM -23.5210 -47.1050 274° West 429 494 17,500 2,188 Climbing FlightAware ADS-B
Mon 11:22:32 PM -23.5160 -47.2030 273° West 437 503 19,100 2,047 Climbing FlightAware ADS-B
Mon 11:23:12 PM -23.5120 -47.2920 273° West 442 509 20,400 1,835 Climbing FlightAware ADS-B
Mon 11:23:57 PM -23.4970 -47.3840 280° West 450 518 21,700 1,835 Climbing FlightAware ADS-B
Mon 11:24:37 PM -23.4480 -47.4670 303° West 459 528 23,000 1,800 Climbing FlightAware ADS-B
Mon 11:25:17 PM -23.3970 -47.5410 307° West 466 536 24,100 1,694 Climbing FlightAware ADS-B
Mon 11:26:02 PM -23.3390 -47.6250 307° West 467 537 25,400 1,553 Climbing FlightAware ADS-B
Mon 11:26:42 PM -23.2870 -47.7020 306° West 475 547 26,300 1,500 Climbing FlightAware ADS-B
Mon 11:27:22 PM -23.2320 -47.7820 307° West 486 559 27,400 1,694 Climbing FlightAware ADS-B
Mon 11:28:07 PM -23.1740 -47.8670 307° West 486 559 28,700 1,624 Climbing FlightAware ADS-B
Mon 11:28:47 PM -23.1150 -47.9530 307° West 491 565 29,700 1,624 Climbing FlightAware ADS-B
Mon 11:29:32 PM -23.0550 -48.0410 307° West 488 562 31,000 1,624 Climbing FlightAware ADS-B
Mon 11:30:12 PM -23.0010 -48.1190 307° West 484 557 32,000 750 Climbing FlightAware ADS-B
Mon 11:30:52 PM -22.9480 -48.1960 307° West 482 555 32,000  Level FlightAware ADS-B
Mon 11:31:37 PM -22.8860 -48.2850 307° West 481 554 32,000  Level FlightAware ADS-B
Mon 11:32:17 PM -22.8350 -48.3590 307° West 479 551 32,000  Level FlightAware ADS-B
Mon 11:33:02 PM -22.7750 -48.4460 307° West 478 550 32,000  Level FlightAware ADS-B
Mon 11:33:42 PM -22.7220 -48.5230 307° West 475 547 32,000  Level FlightAware ADS-B
Mon 11:34:22 PM -22.6690 -48.5990 307° West 475 547 32,000  Level FlightAware ADS-B
Mon 11:35:07 PM -22.6090 -48.6860 307° West 476 548 32,000  Level FlightAware ADS-B
Mon 11:35:47 PM -22.5560 -48.7610 307° West 476 548 32,000  Level FlightAware ADS-B
Mon 11:36:32 PM -22.4980 -48.8440 307° West 476 548 32,000  Level FlightAware ADS-B
Mon 11:37:12 PM -22.4430 -48.9230 307° West 475 547 32,000  Level FlightAware ADS-B
Mon 11:37:52 PM -22.3910 -48.9970 307° West 475 547 32,000  Level FlightAware ADS-B
Mon 11:38:37 PM -22.3290 -49.0850 307° West 477 549 32,000  Level FlightAware ADS-B
Mon 11:39:17 PM -22.2710 -49.1560 311° West 476 548 32,000  Level FlightAware ADS-B
Mon 11:40:02 PM -22.2040 -49.2310 314° West 475 547 32,000  Level FlightAware ADS-B
Mon 11:40:47 PM -22.1330 -49.3100 314° West 475 547 32,000  Level FlightAware ADS-B
Mon 11:41:22 PM -22.0820 -49.3660 314° West 475 547 32,000  Level FlightAware ADS-B
Mon 11:42:07 PM -22.0120 -49.4450 314° West 475 547 32,000  Level FlightAware ADS-B
Mon 11:42:52 PM -21.9460 -49.5190 314° West 474 545 32,000  Level FlightAware ADS-B
Mon 11:43:27 PM -21.8900 -49.5810 314° West 473 544 32,000  Level FlightAware ADS-B
Mon 11:44:12 PM -21.8220 -49.6560 314° West 473 544 32,000  Level FlightAware ADS-B
Mon 11:44:57 PM -21.7520 -49.7340 314° West 473 544 32,000  Level FlightAware ADS-B
Mon 11:45:37 PM -21.6920 -49.8000 314° West 473 544 32,000  Level FlightAware ADS-B
Mon 11:46:17 PM -21.6310 -49.8680 314° West 472 543 32,000  Level FlightAware ADS-B
Mon 11:47:02 PM -21.5640 -49.9420 314° West 470 541 32,000  Level FlightAware ADS-B
Mon 11:47:42 PM -21.5020 -50.0100 314° West 470 541 32,000  Level FlightAware ADS-B
Mon 11:48:27 PM -21.4320 -50.0870 314° West 470 541 32,000  Level FlightAware ADS-B
Mon 11:49:07 PM -21.3720 -50.1540 314° West 471 542 32,000  Level FlightAware ADS-B
Mon 11:49:52 PM -21.3060 -50.2280 314° West 469 540 32,000  Level FlightAware ADS-B
Mon 11:50:27 PM -21.2580 -50.2820 314° West 469 540 32,000  Level FlightAware ADS-B
Mon 11:51:12 PM -21.1860 -50.3610 314° West 471 542 32,000  Level FlightAware ADS-B
Mon 11:52:27 PM -21.0780 -50.4800 314° West 473 544 32,000  Level FlightAware ADS-B
Mon 11:53:02 PM -21.0180 -50.5470 314° West 469 540 32,000  Level FlightAware ADS-B
Mon 11:54:02 PM -20.9320 -50.6410 314° West 469 540 32,000  Level FlightAware ADS-B
Mon 11:54:47 PM -20.8570 -50.7230 314° West 469 540 32,000  Level FlightAware ADS-B
Mon 11:55:17 PM -20.8160 -50.7680 314° West 470 541 32,000  Level FlightAware ADS-B
Mon 11:56:07 PM -20.7340 -50.8550 315° West 468 539 32,000  Level FlightAware ADS-B
Mon 11:56:57 PM -20.6790 -50.9150 314° West 469 540 32,000  Level FlightAware ADS-B
Mon 11:57:47 PM -20.5800 -51.0190 315° West 472 543 32,000  Level FlightAware ADS-B
Mon 11:58:37 PM -20.5090 -51.0970 314° West 470 541 32,000  Level FlightAware ADS-B
Mon 11:59:27 PM -20.4440 -51.1680 314° West 470 541 32,000  Level FlightAware ADS-B
Tue 12:00:07 AM -20.3930 -51.2250 314° West 470 541 32,000  Level FlightAware ADS-B
Tue 12:00:37 AM -20.3170 -51.2800 326° Northwest 469 540 32,000  Level FlightAware ADS-B
Tue 12:01:32 AM -20.2290 -51.3380 328° Northwest 469 540 32,000  Level FlightAware ADS-B
Tue 12:02:12 AM -20.1670 -51.3800 328° Northwest 469 540 32,000  Level FlightAware ADS-B
Tue 12:02:52 AM -20.1040 -51.4210 329° Northwest 469 540 32,000  Level FlightAware ADS-B
Tue 12:03:32 AM -20.0410 -51.4630 328° Northwest 469 540 32,000  Level FlightAware ADS-B
Tue 12:04:12 AM -19.9790 -51.5040 328° Northwest 469 540 32,000  Level FlightAware ADS-B
Tue 12:05:02 AM -19.9010 -51.5560 328° Northwest 469 540 32,000  Level FlightAware ADS-B
Tue 12:05:42 AM -19.8380 -51.5980 328° Northwest 469 540 32,000  Level FlightAware ADS-B
Tue 12:06:22 AM -19.7760 -51.6400 327° Northwest 469 540 32,000  Level FlightAware ADS-B
Tue 12:07:02 AM -19.7130 -51.6810 329° Northwest 469 540 32,000  Level FlightAware ADS-B
Tue 12:07:42 AM -19.6500 -51.7230 328° Northwest 469 540 32,000  Level FlightAware ADS-B
Tue 12:08:32 AM -19.5720 -51.7750 328° Northwest 469 540 32,000  Level FlightAware ADS-B
Tue 12:09:12 AM -19.5100 -51.8160 328° Northwest 469 540 32,000  Level FlightAware ADS-B
Tue 12:09:52 AM -19.4470 -51.8570 328° Northwest 469 540 32,000  Level FlightAware ADS-B
Tue 12:10:32 AM -19.3840 -51.8990 328° Northwest 469 540 32,000 11 Level FlightAware ADS-B
Tue 12:13:00 AM -19.1132 -52.0812 328° Northwest  Level Estimated
Tue 12:14:00 AM -19.0033 -52.1548 328° Northwest  Level Estimated
Tue 12:15:00 AM -18.8935 -52.2284 328° Northwest  Level Estimated
Tue 12:16:00 AM -18.7836 -52.3019 328° Northwest  Level Estimated
Tue 12:17:00 AM -18.6736 -52.3753 328° Northwest  Level Estimated
Tue 12:18:00 AM -18.5637 -52.4486 328° Northwest  Level Estimated
Tue 12:19:00 AM -18.4537 -52.5218 328° Northwest  Level Estimated
Tue 12:20:00 AM -18.3437 -52.5949 328° Northwest  Level Estimated
Tue 12:21:00 AM -18.2337 -52.6679 328° Northwest  Level Estimated
Tue 12:22:00 AM -18.1236 -52.7408 328° Northwest  Level Estimated
Tue 12:23:00 AM -18.0135 -52.8136 328° Northwest  Level Estimated
Tue 12:24:00 AM -17.9034 -52.8864 328° Northwest  Level Estimated
Tue 12:25:00 AM -17.7932 -52.9590 328° Northwest  Level Estimated
Tue 12:26:00 AM -17.6830 -53.0316 328° Northwest  Level Estimated
Tue 12:27:00 AM -17.5728 -53.1041 328° Northwest  Level Estimated
Tue 12:28:00 AM -17.4626 -53.1764 328° Northwest  Level Estimated
Tue 12:29:00 AM -17.3523 -53.2487 328° Northwest  Level Estimated
Tue 12:30:00 AM -17.2421 -53.3209 328° Northwest  Level Estimated
Tue 12:31:00 AM -17.1318 -53.3931 328° Northwest  Level Estimated
Tue 12:32:00 AM -17.0214 -53.4651 328° Northwest  Level Estimated
Tue 12:33:00 AM -16.9111 -53.5370 328° Northwest  Level Estimated
Tue 12:34:00 AM -16.8007 -53.6089 328° Northwest  Level Estimated
Tue 12:35:00 AM -16.6903 -53.6807 328° Northwest  Level Estimated
Tue 12:36:00 AM -16.5798 -53.7524 328° Northwest  Level Estimated
Tue 12:37:00 AM -16.4694 -53.8240 328° Northwest  Level Estimated
Tue 12:38:00 AM -16.3589 -53.8955 328° Northwest  Level Estimated
Tue 12:39:00 AM -16.2484 -53.9670 328° Northwest  Level Estimated
Tue 12:40:00 AM -16.1379 -54.0383 328° Northwest  Level Estimated
Tue 12:41:00 AM -16.0273 -54.1096 328° Northwest  Level Estimated
Tue 12:42:00 AM -15.9167 -54.1809 328° Northwest  Level Estimated
Tue 12:43:00 AM -15.8061 -54.2520 328° Northwest  Level Estimated
Tue 12:44:00 AM -15.6955 -54.3231 328° Northwest  Level Estimated
Tue 12:45:00 AM -15.5849 -54.3940 328° Northwest  Level Estimated
Tue 12:46:00 AM -15.4742 -54.4649 328° Northwest  Level Estimated
Tue 12:47:00 AM -15.3635 -54.5358 328° Northwest  Level Estimated
Tue 12:48:00 AM -15.2528 -54.6065 328° Northwest  Level Estimated
Tue 12:49:00 AM -15.1420 -54.6772 328° Northwest  Level Estimated
Tue 12:50:00 AM -15.0313 -54.7478 328° Northwest  Level Estimated
Tue 12:51:00 AM -14.9205 -54.8183 328° Northwest  Level Estimated
Tue 12:52:00 AM -14.8097 -54.8888 328° Northwest  Level Estimated
Tue 12:53:00 AM -14.6989 -54.9592 328° Northwest  Level Estimated
Tue 12:54:00 AM -14.5880 -55.0295 328° Northwest  Level Estimated
Tue 12:55:00 AM -14.4772 -55.0997 328° Northwest  Level Estimated
Tue 12:56:00 AM -14.3663 -55.1699 328° Northwest  Level Estimated
Tue 12:57:00 AM -14.2554 -55.2400 329° Northwest  Level Estimated
Tue 12:58:00 AM -14.1445 -55.3101 329° Northwest  Level Estimated
Tue 12:59:00 AM -14.0335 -55.3800 329° Northwest  Level Estimated
Tue 01:00:00 AM -13.9225 -55.4499 329° Northwest  Level Estimated
Tue 01:01:00 AM -13.8116 -55.5198 329° Northwest  Level Estimated
Tue 01:02:00 AM -13.7005 -55.5895 329° Northwest  Level Estimated
Tue 01:03:00 AM -13.5895 -55.6592 329° Northwest  Level Estimated
Tue 01:04:00 AM -13.4785 -55.7289 329° Northwest  Level Estimated
Tue 01:05:00 AM -13.3674 -55.7984 329° Northwest  Level Estimated
Tue 01:06:00 AM -13.2563 -55.8680 329° Northwest  Level Estimated
Tue 01:07:00 AM -13.1452 -55.9374 329° Northwest  Level Estimated
Tue 01:08:00 AM -13.0341 -56.0068 329° Northwest  Level Estimated
Tue 01:09:00 AM -12.9230 -56.0761 329° Northwest  Level Estimated
Tue 01:10:00 AM -12.8118 -56.1454 329° Northwest  Level Estimated
Tue 01:11:00 AM -12.7006 -56.2146 329° Northwest  Level Estimated
Tue 01:12:00 AM -12.5894 -56.2837 329° Northwest  Level Estimated
Tue 01:13:00 AM -12.4782 -56.3528 329° Northwest  Level Estimated
Tue 01:14:00 AM -12.3670 -56.4218 329° Northwest  Level Estimated
Tue 01:15:00 AM -12.2557 -56.4907 329° Northwest  Level Estimated
Tue 01:16:00 AM -12.1445 -56.5596 329° Northwest  Level Estimated
Tue 01:17:00 AM -12.0332 -56.6285 329° Northwest  Level Estimated
Tue 01:18:00 AM -11.9219 -56.6973 329° Northwest  Level Estimated
Tue 01:19:00 AM -11.8106 -56.7660 329° Northwest  Level Estimated
Tue 01:20:00 AM -11.6993 -56.8347 329° Northwest  Level Estimated
Tue 01:21:00 AM -11.5879 -56.9033 329° Northwest  Level Estimated
Tue 01:22:00 AM -11.4766 -56.9718 329° Northwest  Level Estimated
Tue 01:23:00 AM -11.3652 -57.0404 329° Northwest  Level Estimated
Tue 01:24:00 AM -11.2538 -57.1088 329° Northwest  Level Estimated
Tue 01:25:00 AM -11.1424 -57.1772 329° Northwest  Level Estimated
Tue 01:26:00 AM -11.0333 -57.2441 329° Northwest  Level Estimated
Tue 01:27:00 AM -10.9242 -57.3110 329° Northwest  Level Estimated
Tue 01:28:00 AM -10.8152 -57.3778 329° Northwest  Level Estimated
Tue 01:29:00 AM -10.7061 -57.4445 329° Northwest  Level Estimated
Tue 01:30:00 AM -10.5969 -57.5112 329° Northwest  Level Estimated
Tue 01:31:00 AM -10.4878 -57.5779 329° Northwest  Level Estimated
Tue 01:32:00 AM -10.3787 -57.6445 329° Northwest  Level Estimated
Tue 01:33:00 AM -10.2695 -57.7110 329° Northwest  Level Estimated
Tue 01:34:00 AM -10.1604 -57.7775 329° Northwest  Level Estimated
Tue 01:35:00 AM -10.0512 -57.8440 329° Northwest  Level Estimated
Tue 01:36:00 AM -9.9420 -57.9104 329° Northwest  Level Estimated
Tue 01:37:00 AM -9.8328 -57.9768 329° Northwest  Level Estimated
Tue 01:38:00 AM -9.7236 -58.0431 329° Northwest  Level Estimated
Tue 01:39:00 AM -9.6143 -58.1094 329° Northwest  Level Estimated
Tue 01:40:00 AM -9.5051 -58.1757 329° Northwest  Level Estimated
Tue 01:41:00 AM -9.3958 -58.2419 329° Northwest  Level Estimated
Tue 01:42:00 AM -9.2865 -58.3080 329° Northwest  Level Estimated
Tue 01:43:00 AM -9.1773 -58.3742 329° Northwest  Level Estimated
Tue 01:44:00 AM -9.0680 -58.4402 329° Northwest  Level Estimated
Tue 01:45:00 AM -8.9587 -58.5063 329° Northwest  Level Estimated
Tue 01:46:00 AM -8.8493 -58.5723 329° Northwest  Level Estimated
Tue 01:47:00 AM -8.7400 -58.6382 329° Northwest  Level Estimated
Tue 01:48:00 AM -8.6307 -58.7042 329° Northwest  Level Estimated
Tue 01:49:00 AM -8.5213 -58.7701 329° Northwest  Level Estimated
Tue 01:50:00 AM -8.4120 -58.8359 329° Northwest  Level Estimated
Tue 01:51:00 AM -8.3026 -58.9017 329° Northwest  Level Estimated
Tue 01:52:00 AM -8.1932 -58.9675 329° Northwest  Level Estimated
Tue 01:53:00 AM -8.0838 -59.0332 329° Northwest  Level Estimated
Tue 01:54:00 AM -7.9744 -59.0989 329° Northwest  Level Estimated
Tue 01:55:00 AM -7.8650 -59.1646 329° Northwest  Level Estimated
Tue 01:56:00 AM -7.7555 -59.2302 329° Northwest  Level Estimated
Tue 01:57:00 AM -7.6461 -59.2958 329° Northwest  Level Estimated
Tue 01:58:00 AM -7.5367 -59.3614 329° Northwest  Level Estimated
Tue 01:59:00 AM -7.4272 -59.4269 329° Northwest  Level Estimated
Tue 02:00:00 AM -7.3177 -59.4924 329° Northwest  Level Estimated
Tue 02:01:00 AM -7.2083 -59.5579 329° Northwest  Level Estimated
Tue 02:02:00 AM -7.0988 -59.6233 329° Northwest  Level Estimated
Tue 02:03:00 AM -6.9893 -59.6888 329° Northwest  Level Estimated
Tue 02:04:00 AM -6.8798 -59.7541 329° Northwest  Level Estimated
Tue 02:05:00 AM -6.7703 -59.8195 329° Northwest  Level Estimated
Tue 02:06:00 AM -6.6607 -59.8848 329° Northwest  Level Estimated
Tue 02:07:00 AM -6.5512 -59.9501 329° Northwest  Level Estimated
Tue 02:08:00 AM -6.4417 -60.0153 329° Northwest  Level Estimated
Tue 02:09:00 AM -6.3321 -60.0806 329° Northwest  Level Estimated
Tue 02:10:00 AM -6.2226 -60.1457 329° Northwest  Level Estimated
Tue 02:11:00 AM -6.1130 -60.2109 329° Northwest  Level Estimated
Tue 02:12:00 AM -6.0034 -60.2761 329° Northwest  Level Estimated
Tue 02:13:00 AM -5.8939 -60.3412 329° Northwest  Level Estimated
Tue 02:14:00 AM -5.7843 -60.4063 329° Northwest  Level Estimated
Tue 02:15:00 AM -5.6747 -60.4714 329° Northwest  Level Estimated
Tue 02:16:00 AM -5.5651 -60.5364 329° Northwest  Level Estimated
Tue 02:17:00 AM -5.4555 -60.6014 329° Northwest  Level Estimated
Tue 02:18:00 AM -5.3459 -60.6664 329° Northwest  Level Estimated
Tue 02:19:00 AM -5.2362 -60.7314 329° Northwest  Level Estimated
Tue 02:20:00 AM -5.1266 -60.7963 329° Northwest  Level Estimated
Tue 02:21:00 AM -5.0170 -60.8613 329° Northwest  Level Estimated
Tue 02:22:00 AM -4.9073 -60.9262 329° Northwest  Level Estimated
Tue 02:23:00 AM -4.7977 -60.9911 329° Northwest  Level Estimated
Tue 02:24:00 AM -4.6880 -61.0559 329° Northwest  Level Estimated
Tue 02:25:00 AM -4.5784 -61.1208 329° Northwest  Level Estimated
Tue 02:26:00 AM -4.4687 -61.1856 329° Northwest  Level Estimated
Tue 02:27:00 AM -4.3590 -61.2504 329° Northwest  Level Estimated
Tue 02:28:00 AM -4.2494 -61.3152 329° Northwest  Level Estimated
Tue 02:29:00 AM -4.1397 -61.3800 330° Northwest  Level Estimated
Tue 02:30:00 AM -4.0300 -61.4447 330° Northwest  Level Estimated
Tue 02:31:00 AM -3.9203 -61.5094 330° Northwest  Level Estimated
Tue 02:32:00 AM -3.8106 -61.5742 330° Northwest  Level Estimated
Tue 02:33:00 AM -3.7009 -61.6389 330° Northwest  Level Estimated
Tue 02:34:00 AM -3.5912 -61.7035 330° Northwest  Level Estimated
Tue 02:35:00 AM -3.4815 -61.7682 330° Northwest  Level Estimated
Tue 02:36:00 AM -3.3718 -61.8329 330° Northwest  Level Estimated
Tue 02:37:00 AM -3.2620 -61.8975 330° Northwest  Level Estimated
Tue 02:38:00 AM -3.1523 -61.9621 330° Northwest  Level Estimated
Tue 02:39:00 AM -3.0426 -62.0267 330° Northwest  Level Estimated
Tue 02:40:00 AM -2.9329 -62.0913 330° Northwest  Level Estimated
Tue 02:41:00 AM -2.8231 -62.1559 330° Northwest  Level Estimated
Tue 02:42:00 AM -2.7134 -62.2205 330° Northwest  Level Estimated
Tue 02:43:00 AM -2.6036 -62.2850 330° Northwest  Level Estimated
Tue 02:44:00 AM -2.4939 -62.3496 330° Northwest  Level Estimated
Tue 02:45:00 AM -2.3841 -62.4141 330° Northwest  Level Estimated
Tue 02:46:00 AM -2.2744 -62.4787 330° Northwest  Level Estimated
Tue 02:47:00 AM -2.1646 -62.5432 330° Northwest  Level Estimated
Tue 02:48:00 AM -2.0549 -62.6077 330° Northwest  Level Estimated
Tue 02:49:00 AM -1.9451 -62.6722 330° Northwest  Level Estimated
Tue 02:50:00 AM -1.8354 -62.7367 330° Northwest  Level Estimated
Tue 02:51:00 AM -1.7256 -62.8012 330° Northwest  Level Estimated
Tue 02:52:00 AM -1.6158 -62.8657 330° Northwest  Level Estimated
Tue 02:53:00 AM -1.5060 -62.9301 330° Northwest  Level Estimated
Tue 02:54:00 AM -1.3963 -62.9946 330° Northwest  Level Estimated
Tue 02:55:00 AM -1.2865 -63.0590 330° Northwest  Level Estimated
Tue 02:56:00 AM -1.1767 -63.1235 330° Northwest  Level Estimated
Tue 02:57:00 AM -1.0669 -63.1879 330° Northwest  Level Estimated
Tue 02:58:00 AM -0.9572 -63.2524 330° Northwest  Level Estimated
Tue 02:59:00 AM -0.8474 -63.3168 330° Northwest  Level Estimated
Tue 03:00:00 AM -0.7376 -63.3812 330° Northwest  Level Estimated
Tue 03:01:00 AM -0.6278 -63.4457 330° Northwest  Level Estimated
Tue 03:02:00 AM -0.5181 -63.5101 330° Northwest  Level Estimated
Tue 03:03:00 AM -0.4083 -63.5745 330° Northwest  Level Estimated
Tue 03:04:00 AM -0.2985 -63.6390 330° Northwest  Level Estimated
Tue 03:05:00 AM -0.1887 -63.7034 330° Northwest  Level Estimated
Tue 03:06:00 AM -0.0789 -63.7678 330° Northwest  Level Estimated
Tue 03:07:00 AM 0.0309 -63.8322 330° Northwest  Level Estimated
Tue 03:08:00 AM 0.1406 -63.8966 330° Northwest  Level Estimated
Tue 03:09:00 AM 0.2504 -63.9611 330° Northwest  Level Estimated
Tue 03:10:00 AM 0.3602 -64.0255 330° Northwest  Level Estimated
Tue 03:11:00 AM 0.4700 -64.0899 330° Northwest  Level Estimated
Tue 03:12:00 AM 0.5798 -64.1543 330° Northwest  Level Estimated
Tue 03:13:00 AM 0.6895 -64.2188 330° Northwest  Level Estimated
Tue 03:14:00 AM 0.7993 -64.2832 330° Northwest  Level Estimated
Tue 03:15:00 AM 0.9091 -64.3476 330° Northwest  Level Estimated
Tue 03:16:00 AM 1.0189 -64.4121 330° Northwest  Level Estimated
Tue 03:17:00 AM 1.1286 -64.4765 330° Northwest  Level Estimated
Tue 03:18:00 AM 1.2384 -64.5410 330° Northwest  Level Estimated
Tue 03:19:00 AM 1.3482 -64.6054 330° Northwest  Level Estimated
Tue 03:20:00 AM 1.4580 -64.6699 330° Northwest  Level Estimated
Tue 03:21:00 AM 1.5677 -64.7343 330° Northwest  Level Estimated
Tue 03:22:00 AM 1.6775 -64.7988 330° Northwest  Level Estimated
Tue 03:23:00 AM 1.7873 -64.8633 330° Northwest  Level Estimated
Tue 03:24:00 AM 1.8970 -64.9278 330° Northwest  Level Estimated
Tue 03:25:00 AM 2.0068 -64.9923 330° Northwest  Level Estimated
Tue 03:26:00 AM 2.1166 -65.0568 330° Northwest  Level Estimated
Tue 03:27:00 AM 2.2263 -65.1213 330° Northwest  Level Estimated
Tue 03:28:00 AM 2.3361 -65.1858 330° Northwest  Level Estimated
Tue 03:29:00 AM 2.4458 -65.2503 330° Northwest  Level Estimated
Tue 03:30:00 AM 2.5556 -65.3149 330° Northwest  Level Estimated
Tue 03:31:00 AM 2.6653 -65.3794 330° Northwest  Level Estimated
Tue 03:32:00 AM 2.7750 -65.4440 330° Northwest  Level Estimated
Tue 03:33:00 AM 2.8848 -65.5086 330° Northwest  Level Estimated
Tue 03:34:00 AM 2.9945 -65.5732 330° Northwest  Level Estimated
Tue 03:35:00 AM 3.1042 -65.6378 330° Northwest  Level Estimated
Tue 03:36:00 AM 3.2140 -65.7024 330° Northwest  Level Estimated
Tue 03:37:00 AM 3.3237 -65.7670 330° Northwest  Level Estimated
Tue 03:38:00 AM 3.4334 -65.8317 330° Northwest  Level Estimated
Tue 03:39:00 AM 3.5431 -65.8963 330° Northwest  Level Estimated
Tue 03:40:00 AM 3.6528 -65.9610 330° Northwest  Level Estimated
Tue 03:41:00 AM 3.7625 -66.0257 330° Northwest  Level Estimated
Tue 03:42:00 AM 3.8722 -66.0904 330° Northwest  Level Estimated
Tue 03:43:00 AM 3.9819 -66.1552 330° Northwest  Level Estimated
Tue 03:44:00 AM 4.0916 -66.2199 330° Northwest  Level Estimated
Tue 03:45:00 AM 4.2013 -66.2847 330° Northwest  Level Estimated
Tue 03:46:00 AM 4.3110 -66.3494 330° Northwest  Level Estimated
Tue 03:47:00 AM 4.4207 -66.4142 329° Northwest  Level Estimated
Tue 03:48:00 AM 4.5303 -66.4790 329° Northwest  Level Estimated
Tue 03:49:00 AM 4.6400 -66.5439 329° Northwest  Level Estimated
Tue 03:50:00 AM 4.7496 -66.6087 329° Northwest  Level Estimated
Tue 03:51:00 AM 4.8593 -66.6736 329° Northwest  Level Estimated
Tue 03:52:00 AM 4.9689 -66.7385 329° Northwest  Level Estimated
Tue 03:53:00 AM 5.0786 -66.8035 329° Northwest  Level Estimated
Tue 03:54:00 AM 5.1882 -66.8684 329° Northwest  Level Estimated
Tue 03:55:00 AM 5.2978 -66.9333 329° Northwest  Level Estimated
Tue 03:56:00 AM 5.4074 -66.9983 329° Northwest  Level Estimated
Tue 03:57:00 AM 5.5170 -67.0633 329° Northwest  Level Estimated
Tue 03:58:00 AM 5.6266 -67.1284 329° Northwest  Level Estimated
Tue 03:59:00 AM 5.7362 -67.1934 329° Northwest  Level Estimated
Tue 04:00:00 AM 5.8458 -67.2585 329° Northwest  Level Estimated
Tue 04:01:00 AM 5.9554 -67.3236 329° Northwest  Level Estimated
Tue 04:02:00 AM 6.0650 -67.3888 329° Northwest  Level Estimated
Tue 04:03:00 AM 6.1746 -67.4539 329° Northwest  Level Estimated
Tue 04:04:00 AM 6.2841 -67.5191 329° Northwest  Level Estimated
Tue 04:05:00 AM 6.3937 -67.5843 329° Northwest  Level Estimated
Tue 04:06:00 AM 6.5032 -67.6496 329° Northwest  Level Estimated
Tue 04:07:00 AM 6.6127 -67.7149 329° Northwest  Level Estimated
Tue 04:08:00 AM 6.7223 -67.7802 329° Northwest  Level Estimated
Tue 04:09:00 AM 6.8318 -67.8455 329° Northwest  Level Estimated
Tue 04:10:00 AM 6.9413 -67.9108 329° Northwest  Level Estimated
Tue 04:11:00 AM 7.0508 -67.9762 329° Northwest  Level Estimated
Tue 04:12:00 AM 7.1603 -68.0416 329° Northwest  Level Estimated
Tue 04:13:00 AM 7.2698 -68.1071 329° Northwest  Level Estimated
Tue 04:14:00 AM 7.3792 -68.1726 329° Northwest  Level Estimated
Tue 04:15:00 AM 7.4887 -68.2381 329° Northwest  Level Estimated
Tue 04:16:00 AM 7.5981 -68.3037 329° Northwest  Level Estimated
Tue 04:17:00 AM 7.7076 -68.3692 329° Northwest  Level Estimated
Tue 04:18:00 AM 7.8170 -68.4349 329° Northwest  Level Estimated
Tue 04:19:00 AM 7.9264 -68.5005 329° Northwest  Level Estimated
Tue 04:20:00 AM 8.0358 -68.5662 329° Northwest  Level Estimated
Tue 04:21:00 AM 8.1452 -68.6319 329° Northwest  Level Estimated
Tue 04:22:00 AM 8.2546 -68.6977 329° Northwest  Level Estimated
Tue 04:23:00 AM 8.3640 -68.7635 329° Northwest  Level Estimated
Tue 04:24:00 AM 8.4734 -68.8293 329° Northwest  Level Estimated
Tue 04:25:00 AM 8.5827 -68.8952 329° Northwest  Level Estimated
Tue 04:26:00 AM 8.6921 -68.9611 329° Northwest  Level Estimated
Tue 04:27:00 AM 8.8014 -69.0270 329° Northwest  Level Estimated
Tue 04:28:00 AM 8.9108 -69.0930 329° Northwest  Level Estimated
Tue 04:29:00 AM 9.0201 -69.1590 329° Northwest  Level Estimated
Tue 04:30:00 AM 9.1294 -69.2251 329° Northwest  Level Estimated
Tue 04:31:00 AM 9.2387 -69.2912 329° Northwest  Level Estimated
Tue 04:32:00 AM 9.3479 -69.3574 329° Northwest  Level Estimated
Tue 04:33:00 AM 9.4572 -69.4236 329° Northwest  Level Estimated
Tue 04:34:00 AM 9.5664 -69.4898 329° Northwest  Level Estimated
Tue 04:35:00 AM 9.6757 -69.5561 329° Northwest  Level Estimated
Tue 04:36:00 AM 9.7849 -69.6224 329° Northwest  Level Estimated
Tue 04:37:00 AM 9.8941 -69.6887 329° Northwest  Level Estimated
Tue 04:38:00 AM 10.0033 -69.7551 329° Northwest  Level Estimated
Tue 04:39:00 AM 10.1125 -69.8216 329° Northwest  Level Estimated
Tue 04:40:00 AM 10.2217 -69.8881 329° Northwest  Level Estimated
Tue 04:41:00 AM 10.3308 -69.9546 329° Northwest  Level Estimated
Tue 04:42:00 AM 10.4400 -70.0212 329° Northwest  Level Estimated
Tue 04:43:00 AM 10.5491 -70.0878 329° Northwest  Level Estimated
Tue 04:44:00 AM 10.6582 -70.1545 329° Northwest  Level Estimated
Tue 04:45:00 AM 10.7673 -70.2213 329° Northwest  Level Estimated
Tue 04:46:00 AM 10.8764 -70.2880 329° Northwest  Level Estimated
Tue 04:47:00 AM 10.9855 -70.3549 329° Northwest  Level Estimated
Tue 04:48:00 AM 11.0946 -70.4217 329° Northwest  Level Estimated
Tue 04:49:00 AM 11.2036 -70.4886 329° Northwest  Level Estimated
Tue 04:50:00 AM 11.3126 -70.5556 329° Northwest  Level Estimated
Tue 04:51:00 AM 11.4217 -70.6226 329° Northwest  Level Estimated
Tue 04:52:00 AM 11.5307 -70.6897 329° Northwest  Level Estimated
Tue 04:53:00 AM 11.6397 -70.7569 329° Northwest  Level Estimated
Tue 04:54:00 AM 11.7486 -70.8240 329° Northwest  Level Estimated
Tue 04:55:00 AM 11.8576 -70.8913 329° Northwest  Level Estimated
Tue 04:56:00 AM 11.9665 -70.9585 329° Northwest  Level Estimated
Tue 04:57:00 AM 12.0754 -71.0259 329° Northwest  Level Estimated
Tue 04:58:00 AM 12.1844 -71.0933 329° Northwest  Level Estimated
Tue 04:59:00 AM 12.2932 -71.1607 329° Northwest  Level Estimated
Tue 05:00:00 AM 12.4021 -71.2282 329° Northwest  Level Estimated
Tue 05:01:00 AM 12.5110 -71.2958 329° Northwest  Level Estimated
Tue 05:02:00 AM 12.6198 -71.3634 329° Northwest  Level Estimated
Tue 05:03:00 AM 12.7286 -71.4311 329° Northwest  Level Estimated
Tue 05:04:00 AM 12.8374 -71.4988 329° Northwest  Level Estimated
Tue 05:05:00 AM 12.9462 -71.5667 329° Northwest  Level Estimated
Tue 05:06:00 AM 13.0550 -71.6345 329° Northwest  Level Estimated
Tue 05:07:00 AM 13.1637 -71.7024 329° Northwest  Level Estimated
Tue 05:08:00 AM 13.2725 -71.7704 329° Northwest  Level Estimated
Tue 05:09:00 AM 13.3812 -71.8384 329° Northwest  Level Estimated
Tue 05:10:00 AM 13.4899 -71.9065 329° Northwest  Level Estimated
Tue 05:11:00 AM 13.5986 -71.9747 329° Northwest  Level Estimated
Tue 05:12:00 AM 13.7072 -72.0429 329° Northwest  Level Estimated
Tue 05:13:00 AM 13.8159 -72.1112 329° Northwest  Level Estimated
Tue 05:14:00 AM 13.9245 -72.1796 329° Northwest  Level Estimated
Tue 05:15:00 AM 14.0331 -72.2480 329° Northwest  Level Estimated
Tue 05:16:00 AM 14.1417 -72.3165 329° Northwest  Level Estimated
Tue 05:17:00 AM 14.2503 -72.3850 329° Northwest  Level Estimated
Tue 05:18:00 AM 14.3588 -72.4536 329° Northwest  Level Estimated
Tue 05:19:00 AM 14.4674 -72.5223 329° Northwest  Level Estimated
Tue 05:20:00 AM 14.5759 -72.5910 328° Northwest  Level Estimated
Tue 05:21:00 AM 14.6844 -72.6598 328° Northwest  Level Estimated
Tue 05:22:00 AM 14.7928 -72.7287 328° Northwest  Level Estimated
Tue 05:23:00 AM 14.9013 -72.7977 328° Northwest  Level Estimated
Tue 05:24:00 AM 15.0097 -72.8667 328° Northwest  Level Estimated
Tue 05:25:00 AM 15.1181 -72.9358 328° Northwest  Level Estimated
Tue 05:26:00 AM 15.2265 -73.0049 328° Northwest  Level Estimated
Tue 05:27:00 AM 15.3349 -73.0742 328° Northwest  Level Estimated
Tue 05:28:00 AM 15.4432 -73.1435 328° Northwest  Level Estimated
Tue 05:29:00 AM 15.5515 -73.2128 328° Northwest  Level Estimated
Tue 05:30:00 AM 15.6598 -73.2823 328° Northwest  Level Estimated
Tue 05:31:00 AM 15.7681 -73.3518 328° Northwest  Level Estimated
Tue 05:32:00 AM 15.8764 -73.4214 328° Northwest  Level Estimated
Tue 05:33:00 AM 15.9846 -73.4911 328° Northwest  Level Estimated
Tue 05:34:00 AM 16.0928 -73.5608 328° Northwest  Level Estimated
Tue 05:35:00 AM 16.2010 -73.6306 328° Northwest  Level Estimated
Tue 05:36:00 AM 16.3092 -73.7005 328° Northwest  Level Estimated
Tue 05:37:00 AM 16.4173 -73.7705 328° Northwest  Level Estimated
Tue 05:38:00 AM 16.5254 -73.8406 328° Northwest  Level Estimated
Tue 05:39:00 AM 16.6335 -73.9107 328° Northwest  Level Estimated
Tue 05:40:00 AM 16.7416 -73.9809 328° Northwest  Level Estimated
Tue 05:41:00 AM 16.8496 -74.0512 328° Northwest  Level Estimated
Tue 05:42:00 AM 16.9576 -74.1216 328° Northwest  Level Estimated
Tue 05:43:00 AM 17.0657 -74.1920 328° Northwest  Level Estimated
Tue 05:44:00 AM 17.1736 -74.2626 328° Northwest  Level Estimated
Tue 05:45:00 AM 17.2816 -74.3332 328° Northwest  Level Estimated
Tue 05:46:00 AM 17.3895 -74.4039 328° Northwest  Level Estimated
Tue 05:47:00 AM 17.4974 -74.4746 328° Northwest  Level Estimated
Tue 05:48:00 AM 17.6053 -74.5455 328° Northwest  Level Estimated
Tue 05:49:00 AM 17.7131 -74.6165 328° Northwest  Level Estimated
Tue 05:50:00 AM 17.8210 -74.6875 328° Northwest  Level Estimated
Tue 05:51:00 AM 17.9288 -74.7586 328° Northwest  Level Estimated
Tue 05:52:00 AM 18.0365 -74.8298 328° Northwest  Level Estimated
Tue 05:53:00 AM 18.1443 -74.9011 328° Northwest  Level Estimated
Tue 05:54:00 AM 18.2520 -74.9725 328° Northwest  Level Estimated
Tue 05:55:00 AM 18.3597 -75.0440 328° Northwest  Level Estimated
Tue 05:56:00 AM 18.4674 -75.1155 328° Northwest  Level Estimated
Tue 05:57:00 AM 18.5750 -75.1872 328° Northwest  Level Estimated
Tue 05:58:00 AM 18.6826 -75.2589 328° Northwest  Level Estimated
Tue 05:59:00 AM 18.7902 -75.3308 328° Northwest  Level Estimated
Tue 06:00:00 AM 18.8978 -75.4027 328° Northwest  Level Estimated
Tue 06:01:00 AM 19.0053 -75.4747 328° Northwest  Level Estimated
Tue 06:02:00 AM 19.1128 -75.5468 328° Northwest  Level Estimated
Tue 06:03:00 AM 19.2203 -75.6190 328° Northwest  Level Estimated
Tue 06:04:00 AM 19.3277 -75.6913 328° Northwest  Level Estimated
Tue 06:05:00 AM 19.4352 -75.7637 328° Northwest  Level Estimated
Tue 06:06:00 AM 19.5425 -75.8362 328° Northwest  Level Estimated
Tue 06:07:00 AM 19.6499 -75.9088 328° Northwest  Level Estimated
Tue 06:08:00 AM 19.7572 -75.9815 327° Northwest  Level Estimated
Tue 06:09:00 AM 19.8645 -76.0543 327° Northwest  Level Estimated
Tue 06:10:00 AM 19.9718 -76.1271 327° Northwest  Level Estimated
Tue 06:11:00 AM 20.0790 -76.2001 327° Northwest  Level Estimated
Tue 06:12:00 AM 20.1863 -76.2732 327° Northwest  Level Estimated
Tue 06:13:00 AM 20.2934 -76.3464 327° Northwest  Level Estimated
Tue 06:14:00 AM 20.4006 -76.4196 327° Northwest  Level Estimated
Tue 06:15:00 AM 20.5077 -76.4930 327° Northwest  Level Estimated
Tue 06:16:00 AM 20.6148 -76.5665 327° Northwest  Level Estimated
Tue 06:17:00 AM 20.7218 -76.6401 327° Northwest  Level Estimated
Tue 06:18:00 AM 20.8289 -76.7138 327° Northwest  Level Estimated
Tue 06:19:00 AM 20.9359 -76.7876 327° Northwest  Level Estimated
Tue 06:20:00 AM 21.0429 -76.8615 327° Northwest  Level Estimated
Tue 06:21:00 AM 21.1498 -76.9355 327° Northwest  Level Estimated
Tue 06:22:00 AM 21.2567 -77.0096 327° Northwest  Level Estimated
Tue 06:23:00 AM 21.3636 -77.0838 327° Northwest  Level Estimated
Tue 06:24:00 AM 21.4704 -77.1582 327° Northwest  Level Estimated
Tue 06:25:00 AM 21.5772 -77.2326 327° Northwest  Level Estimated
Tue 06:26:00 AM 21.6840 -77.3072 327° Northwest  Level Estimated
Tue 06:27:00 AM 21.7907 -77.3818 327° Northwest  Level Estimated
Tue 06:28:00 AM 21.8985 -77.4574 327° Northwest  Level Estimated
Tue 06:28:15 AM 22.7939 -77.8506 327° Northwest 487 560 36,000  Level Miami Center
Tue 06:29:00 AM 22.0063 -77.5330 327° Northwest  Level Estimated
Tue 06:29:15 AM 22.9086 -77.8761 348° North 430 495 36,000  Level Miami Center
Tue 06:30:00 AM 22.1140 -77.6088 327° Northwest  Level Estimated
Tue 06:30:15 AM 23.0256 -77.9086 346° North 436 502 36,000  Level Miami Center
Tue 06:31:00 AM 22.2217 -77.6847 327° Northwest  Level Estimated
Tue 06:31:15 AM 23.1336 -77.9658 334° Northwest 436 502 36,000  Level Miami Center
Tue 06:32:00 AM 22.3294 -77.7607 327° Northwest  Level Estimated
Tue 06:32:15 AM 23.2272 -78.0436 323° Northwest 425 489 36,000  Level Miami Center
Tue 06:33:00 AM 22.4370 -77.8368 327° Northwest  Level Estimated
Tue 06:33:15 AM 23.3206 -78.1122 326° Northwest 413 475 36,000  Level Miami Center
Tue 06:34:15 AM 23.4161 -78.1969 321° Northwest 426 490 36,000  Level Miami Center
Tue 06:35:15 AM 23.5072 -78.2683 324° Northwest 420 483 36,000  Level Miami Center
Tue 06:36:15 AM 23.5986 -78.3372 325° Northwest 416 479 36,000  Level Miami Center
Tue 06:37:15 AM 23.6897 -78.4086 324° Northwest 411 473 36,000  Level Miami Center
Tue 06:38:15 AM 23.7850 -78.4869 323° Northwest 411 473 36,000  Level Miami Center
Tue 06:39:15 AM 23.8764 -78.5564 325° Northwest 406 467 36,000  Level Miami Center
Tue 06:40:15 AM 23.9675 -78.6281 324° Northwest 401 461 36,000 -635 Level Miami Center
Tue 06:45:52 AM 24.4890 -79.0250 324° Northwest 380 437 31,800 -880 Descending FlightAware ADS-B
Tue 06:46:37 AM 24.5550 -79.0760 325° Northwest 373 429 30,400 -1,553 Descending FlightAware ADS-B
Tue 06:47:17 AM 24.6130 -79.1210 325° Northwest 375 432 29,600 -1,575 Descending FlightAware ADS-B
Tue 06:47:57 AM 24.6720 -79.1660 325° Northwest 377 434 28,300 -2,329 Descending FlightAware ADS-B
Tue 06:48:42 AM 24.7380 -79.2170 325° Northwest 392 451 26,300 -2,471 Descending FlightAware ADS-B
Tue 06:49:22 AM 24.7980 -79.2640 325° Northwest 395 455 24,800 -1,976 Descending FlightAware ADS-B
Tue 06:50:07 AM 24.8660 -79.3170 325° Northwest 380 437 23,500 -1,835 Descending FlightAware ADS-B
Tue 06:50:47 AM 24.9230 -79.3610 325° Northwest 376 433 22,200 -1,950 Descending FlightAware ADS-B
Tue 06:51:27 AM 24.9810 -79.4070 324° Northwest 377 434 20,900 -1,976 Descending FlightAware ADS-B
Tue 06:52:12 AM 25.0440 -79.4560 325° Northwest 372 428 19,400 -1,906 Descending FlightAware ADS-B
Tue 06:52:52 AM 25.1000 -79.5000 325° Northwest 364 419 18,200 -1,765 Descending FlightAware ADS-B
Tue 06:53:37 AM 25.1630 -79.5490 325° Northwest 357 411 16,900 -1,765 Descending FlightAware ADS-B
Tue 06:54:17 AM 25.2170 -79.5920 324° Northwest 358 412 15,700 -1,765 Descending FlightAware ADS-B
Tue 06:55:02 AM 25.2790 -79.6400 325° Northwest 352 405 14,400 -1,694 Descending FlightAware ADS-B
Tue 06:55:42 AM 25.3310 -79.6810 325° Northwest 341 392 13,300 -1,650 Descending FlightAware ADS-B
Tue 06:56:22 AM 25.3800 -79.7200 324° Northwest 342 394 12,200 -1,271 Descending FlightAware ADS-B
Tue 06:57:07 AM 25.4270 -79.7800 311° West 316 364 11,500 -776 Descending FlightAware ADS-B
Tue 06:57:47 AM 25.4610 -79.8330 305° West 319 367 11,100 -675 Descending FlightAware ADS-B
Tue 06:58:27 AM 25.4960 -79.8860 306° West 308 354 10,600 -706 Descending FlightAware ADS-B
Tue 06:59:12 AM 25.5320 -79.9410 306° West 280 322 10,100 -600 Descending FlightAware ADS-B
Tue 06:59:37 AM 25.5520 -79.9700 307° West 275 316 9,900 -545 Descending FlightAware ADS-B
Tue 07:00:07 AM 25.5740 -80.0040 306° West 273 314 9,600 -900 Descending FlightAware ADS-B
Tue 07:00:37 AM 25.5960 -80.0380 306° West 264 304 9,000 -1,200 Descending FlightAware ADS-B
Tue 07:01:02 AM 25.6150 -80.0660 307° West 259 298 8,500 -1,091 Descending FlightAware ADS-B
Tue 07:01:32 AM 25.6360 -80.0980 306° West 255 293 8,000 -545 Descending FlightAware ADS-B
Tue 07:01:57 AM 25.6530 -80.1240 306° West 247 284 8,000 -109 Level FlightAware ADS-B
Tue 07:02:27 AM 25.6680 -80.1590 295° West 246 283 7,900 -133 Descending FlightAware ADS-B
Tue 07:02:42 AM 25.6730 -80.1770 287° West 249 287 7,900 -600 Level FlightAware ADS-B
Tue 07:03:07 AM 25.6800 -80.2060 285° West 250 288 7,500 -1,527 Descending FlightAware ADS-B
Tue 07:03:37 AM 25.6910 -80.2460 287° West 262 302 6,500 -1,600 Descending FlightAware ADS-B
Tue 07:04:07 AM 25.7010 -80.2850 286° West 261 300 5,900 -1,200 Descending FlightAware ADS-B
Tue 07:04:32 AM 25.7080 -80.3170 284° West 259 298 5,400 -1,543 Descending FlightAware ADS-B
Tue 07:05:17 AM 25.7090 -80.3780 271° West 250 288 4,100 -1,457 Descending FlightAware ADS-B
Tue 07:05:42 AM 25.7160 -80.4060 286° West 227 261 3,700 -1,527 Descending FlightAware ADS-B
Tue 07:06:12 AM 25.7290 -80.4370 295° West 216 249 2,700 -1,745 Descending FlightAware ADS-B
Tue 07:06:37 AM 25.7490 -80.4480 334° Northwest 181 208 2,100 -1,309 Descending FlightAware ADS-B
Tue 07:07:07 AM 25.7680 -80.4320 37° Northeast 177 204 1,500 -700 Descending FlightAware ADS-B
Tue 07:07:37 AM 25.7800 -80.4110 58° Northeast 153 176 1,400  Descending FlightAware ADS-B
Tue 07:07:47 AM 25.7820 -80.4030 74° East 157 181 1,500  Climbing FlightAware ADS-B
Tue 07:07:57 AM 25.7830 -80.3970 80° East 161 185 1,400 -800 Descending FlightAware ADS-B
Tue 07:08:32 AM 25.7840 -80.3650 88° East 153 176 900 -873 Descending FlightAware ADS-B
Tue 07:08:52 AM 25.7850 -80.3490 86° East 152 175 600 -750 Descending FlightAware ADS-B
Tue 07:09:12 AM 25.7850 -80.3330 90° East 159 183 400 -267 Descending FlightAware ADS-B
Tue 07:09:37 AM 25.7850 -80.3150 90° East 159 183 400  Level FlightAware ADS-B

Login

Don't have an account? Register now (free) for customized features, flight alerts, and more!